Liscombe, United Kingdom
Current Conditions -  °F | °C
As of 1:50 PM on Wednesday 28 Jan 2015 (Local Time) from EGDX Reporting Station
Scattered Clouds Scattered Clouds  
Wind Chill: 33°   Ceiling: Unl
Heat Index: 43°   Visibility: 6mi
Dew Point: 28°   Wind: 26mph
Humidity: 57%   Direction: 300°WNW
Pressure: 29.68"   Gusts: 39mph
Location:  51.08°N, 3.6°W
Report Text: EGDX 281350Z 30023G34KT 9999 SCT031 06/M02 Q1005 BLU
Loading
Personal Weather Stations






























Interactive Weather Map New forecast layout! Learn more

10-Day Weather Forecast

Advertisements
Track Severe Weather on mobile